sensor_id;sensor_type;location;lat;lon;timestamp;temperature;humidity
23715;DHT22;12036;50.858;4.472;2023-12-04T00:00:50;3.40;99.90
23715;DHT22;12036;50.858;4.472;2023-12-04T00:03:16;3.50;99.90
23715;DHT22;12036;50.858;4.472;2023-12-04T00:05:44;3.40;99.90
23715;DHT22;12036;50.858;4.472;2023-12-04T00:08:10;3.40;99.90
23715;DHT22;12036;50.858;4.472;2023-12-04T00:10:36;3.40;99.90
23715;DHT22;12036;50.858;4.472;2023-12-04T00:13:02;3.50;99.90
23715;DHT22;12036;50.858;4.472;2023-12-04T00:15:28;3.50;99.90
23715;DHT22;12036;50.858;4.472;2023-12-04T00:17:53;3.40;99.90
23715;DHT22;12036;50.858;4.472;2023-12-04T00:20:19;3.50;99.90
23715;DHT22;12036;50.858;4.472;2023-12-04T00:22:45;3.50;99.90
23715;DHT22;12036;50.858;4.472;2023-12-04T00:25:11;3.40;99.90
23715;DHT22;12036;50.858;4.472;2023-12-04T00:27:36;3.40;99.90
23715;DHT22;12036;50.858;4.472;2023-12-04T00:30:02;3.30;99.90
23715;DHT22;12036;50.858;4.472;2023-12-04T00:32:29;3.30;99.90
23715;DHT22;12036;50.858;4.472;2023-12-04T00:34:55;3.40;99.90
23715;DHT22;12036;50.858;4.472;2023-12-04T00:37:21;3.40;99.90
23715;DHT22;12036;50.858;4.472;2023-12-04T00:39:47;3.40;99.90
23715;DHT22;12036;50.858;4.472;2023-12-04T00:42:13;3.40;99.90
23715;DHT22;12036;50.858;4.472;2023-12-04T00:44:41;3.40;99.90
23715;DHT22;12036;50.858;4.472;2023-12-04T00:47:06;3.40;99.90
23715;DHT22;12036;50.858;4.472;2023-12-04T00:49:32;3.40;99.90
23715;DHT22;12036;50.858;4.472;2023-12-04T00:51:57;3.50;99.90
23715;DHT22;12036;50.858;4.472;2023-12-04T00:54:23;3.50;99.90
23715;DHT22;12036;50.858;4.472;2023-12-04T00:56:49;3.40;99.90
23715;DHT22;12036;50.858;4.472;2023-12-04T00:59:14;3.40;99.90
23715;DHT22;12036;50.858;4.472;2023-12-04T01:01:40;3.40;99.90
23715;DHT22;12036;50.858;4.472;2023-12-04T01:04:05;3.50;99.90
23715;DHT22;12036;50.858;4.472;2023-12-04T01:06:31;3.40;99.90
23715;DHT22;12036;50.858;4.472;2023-12-04T01:08:57;3.50;99.90
23715;DHT22;12036;50.858;4.472;2023-12-04T01:11:22;3.50;99.90
23715;DHT22;12036;50.858;4.472;2023-12-04T01:13:49;3.40;99.90
23715;DHT22;12036;50.858;4.472;2023-12-04T01:16:15;3.50;99.90
23715;DHT22;12036;50.858;4.472;2023-12-04T01:18:41;3.50;99.90
23715;DHT22;12036;50.858;4.472;2023-12-04T01:21:08;3.40;99.90
23715;DHT22;12036;50.858;4.472;2023-12-04T01:23:36;3.50;99.90
23715;DHT22;12036;50.858;4.472;2023-12-04T01:26:03;3.60;99.90
23715;DHT22;12036;50.858;4.472;2023-12-04T01:28:29;3.60;99.90
23715;DHT22;12036;50.858;4.472;2023-12-04T01:30:54;3.60;99.90
23715;DHT22;12036;50.858;4.472;2023-12-04T01:33:20;3.60;99.90
23715;DHT22;12036;50.858;4.472;2023-12-04T01:35:46;3.60;99.90
23715;DHT22;12036;50.858;4.472;2023-12-04T01:38:11;3.70;99.90
23715;DHT22;12036;50.858;4.472;2023-12-04T01:40:37;3.60;99.90
23715;DHT22;12036;50.858;4.472;2023-12-04T01:43:03;3.70;99.90
23715;DHT22;12036;50.858;4.472;2023-12-04T01:45:28;3.70;99.90
23715;DHT22;12036;50.858;4.472;2023-12-04T01:47:54;3.70;99.90
23715;DHT22;12036;50.858;4.472;2023-12-04T01:50:20;3.70;99.90
23715;DHT22;12036;50.858;4.472;2023-12-04T01:52:46;3.80;99.90
23715;DHT22;12036;50.858;4.472;2023-12-04T01:55:12;3.70;99.90
23715;DHT22;12036;50.858;4.472;2023-12-04T01:57:38;3.80;99.90
23715;DHT22;12036;50.858;4.472;2023-12-04T02:00:05;3.80;99.90
23715;DHT22;12036;50.858;4.472;2023-12-04T02:02:37;3.70;99.90
23715;DHT22;12036;50.858;4.472;2023-12-04T02:05:03;3.70;99.90
23715;DHT22;12036;50.858;4.472;2023-12-04T02:07:30;3.80;99.90
23715;DHT22;12036;50.858;4.472;2023-12-04T02:09:56;3.90;99.90
23715;DHT22;12036;50.858;4.472;2023-12-04T02:12:22;3.90;99.90
23715;DHT22;12036;50.858;4.472;2023-12-04T02:14:48;3.90;99.90
23715;DHT22;12036;50.858;4.472;2023-12-04T02:17:14;4.00;99.90
23715;DHT22;12036;50.858;4.472;2023-12-04T02:19:42;4.00;99.90
23715;DHT22;12036;50.858;4.472;2023-12-04T02:22:07;4.00;99.90
23715;DHT22;12036;50.858;4.472;2023-12-04T02:24:33;4.00;99.90
23715;DHT22;12036;50.858;4.472;2023-12-04T02:27:20;3.90;99.90
23715;DHT22;12036;50.858;4.472;2023-12-04T02:30:01;3.80;99.90
23715;DHT22;12036;50.858;4.472;2023-12-04T02:32:31;3.80;99.90
23715;DHT22;12036;50.858;4.472;2023-12-04T02:34:59;3.90;99.90
23715;DHT22;12036;50.858;4.472;2023-12-04T02:37:26;3.90;99.90
23715;DHT22;12036;50.858;4.472;2023-12-04T02:39:52;3.90;99.90
23715;DHT22;12036;50.858;4.472;2023-12-04T02:42:20;3.90;99.90
23715;DHT22;12036;50.858;4.472;2023-12-04T02:44:46;4.00;99.90
23715;DHT22;12036;50.858;4.472;2023-12-04T02:47:12;4.00;99.90
23715;DHT22;12036;50.858;4.472;2023-12-04T02:49:38;4.10;99.90
23715;DHT22;12036;50.858;4.472;2023-12-04T02:52:03;4.00;99.90
23715;DHT22;12036;50.858;4.472;2023-12-04T02:54:29;4.10;99.90
23715;DHT22;12036;50.858;4.472;2023-12-04T02:56:55;4.00;99.90
23715;DHT22;12036;50.858;4.472;2023-12-04T02:59:20;3.90;99.90
23715;DHT22;12036;50.858;4.472;2023-12-04T03:01:46;3.90;99.90
23715;DHT22;12036;50.858;4.472;2023-12-04T03:04:13;4.00;99.90
23715;DHT22;12036;50.858;4.472;2023-12-04T03:06:38;4.00;99.90
23715;DHT22;12036;50.858;4.472;2023-12-04T03:09:04;4.00;99.90
23715;DHT22;12036;50.858;4.472;2023-12-04T03:11:30;4.00;99.90
23715;DHT22;12036;50.858;4.472;2023-12-04T03:13:56;3.90;99.90
23715;DHT22;12036;50.858;4.472;2023-12-04T03:16:22;4.00;99.90
23715;DHT22;12036;50.858;4.472;2023-12-04T03:18:48;3.90;99.90
23715;DHT22;12036;50.858;4.472;2023-12-04T03:21:13;4.10;99.90
23715;DHT22;12036;50.858;4.472;2023-12-04T03:23:39;4.20;99.90
23715;DHT22;12036;50.858;4.472;2023-12-04T03:26:05;4.20;99.90
23715;DHT22;12036;50.858;4.472;2023-12-04T03:28:30;4.30;99.90
23715;DHT22;12036;50.858;4.472;2023-12-04T03:30:56;4.30;99.90
23715;DHT22;12036;50.858;4.472;2023-12-04T03:33:22;4.30;99.90
23715;DHT22;12036;50.858;4.472;2023-12-04T03:35:47;4.40;99.90
23715;DHT22;12036;50.858;4.472;2023-12-04T03:38:13;4.30;99.80
23715;DHT22;12036;50.858;4.472;2023-12-04T03:40:39;4.50;99.40
23715;DHT22;12036;50.858;4.472;2023-12-04T03:43:04;4.50;99.70
23715;DHT22;12036;50.858;4.472;2023-12-04T03:45:30;4.40;99.80
23715;DHT22;12036;50.858;4.472;2023-12-04T03:47:56;4.40;99.80
23715;DHT22;12036;50.858;4.472;2023-12-04T03:50:21;4.30;99.80
23715;DHT22;12036;50.858;4.472;2023-12-04T03:52:47;4.30;99.60
23715;DHT22;12036;50.858;4.472;2023-12-04T03:55:13;4.40;99.40
23715;DHT22;12036;50.858;4.472;2023-12-04T03:57:39;4.40;99.20
23715;DHT22;12036;50.858;4.472;2023-12-04T04:00:05;4.50;99.00
23715;DHT22;12036;50.858;4.472;2023-12-04T04:02:30;4.40;99.40
23715;DHT22;12036;50.858;4.472;2023-12-04T04:04:56;4.30;99.40
23715;DHT22;12036;50.858;4.472;2023-12-04T04:07:22;4.30;99.30
23715;DHT22;12036;50.858;4.472;2023-12-04T04:09:47;4.20;99.90
23715;DHT22;12036;50.858;4.472;2023-12-04T04:12:13;4.30;99.30
23715;DHT22;12036;50.858;4.472;2023-12-04T04:14:39;4.40;99.20
23715;DHT22;12036;50.858;4.472;2023-12-04T04:17:04;4.40;99.10
23715;DHT22;12036;50.858;4.472;2023-12-04T04:19:30;4.40;98.80
23715;DHT22;12036;50.858;4.472;2023-12-04T04:21:56;4.40;98.80
23715;DHT22;12036;50.858;4.472;2023-12-04T04:24:22;4.40;98.80
23715;DHT22;12036;50.858;4.472;2023-12-04T04:26:47;4.40;98.70
23715;DHT22;12036;50.858;4.472;2023-12-04T04:29:13;4.50;98.20
23715;DHT22;12036;50.858;4.472;2023-12-04T04:31:38;4.50;98.20
23715;DHT22;12036;50.858;4.472;2023-12-04T04:34:04;4.40;98.30
23715;DHT22;12036;50.858;4.472;2023-12-04T04:36:30;4.40;98.50
23715;DHT22;12036;50.858;4.472;2023-12-04T04:38:55;4.40;98.20
23715;DHT22;12036;50.858;4.472;2023-12-04T04:41:21;4.40;98.00
23715;DHT22;12036;50.858;4.472;2023-12-04T04:43:47;4.50;97.90
23715;DHT22;12036;50.858;4.472;2023-12-04T04:46:12;4.40;97.80
23715;DHT22;12036;50.858;4.472;2023-12-04T04:48:39;4.40;97.90
23715;DHT22;12036;50.858;4.472;2023-12-04T04:51:05;4.30;97.80
23715;DHT22;12036;50.858;4.472;2023-12-04T04:53:30;4.40;97.70
23715;DHT22;12036;50.858;4.472;2023-12-04T04:55:56;4.40;97.40
23715;DHT22;12036;50.858;4.472;2023-12-04T04:58:21;4.60;96.80
23715;DHT22;12036;50.858;4.472;2023-12-04T05:00:47;4.60;96.70
23715;DHT22;12036;50.858;4.472;2023-12-04T05:03:13;4.50;96.80
23715;DHT22;12036;50.858;4.472;2023-12-04T05:05:38;4.60;97.10
23715;DHT22;12036;50.858;4.472;2023-12-04T05:08:04;4.50;97.20
23715;DHT22;12036;50.858;4.472;2023-12-04T05:10:30;4.40;96.90
23715;DHT22;12036;50.858;4.472;2023-12-04T05:12:55;4.30;97.30
23715;DHT22;12036;50.858;4.472;2023-12-04T05:15:21;4.20;97.70
23715;DHT22;12036;50.858;4.472;2023-12-04T05:17:46;4.30;97.60
23715;DHT22;12036;50.858;4.472;2023-12-04T05:20:12;4.30;97.50
23715;DHT22;12036;50.858;4.472;2023-12-04T05:22:38;4.40;97.50
23715;DHT22;12036;50.858;4.472;2023-12-04T05:25:04;4.20;97.70
23715;DHT22;12036;50.858;4.472;2023-12-04T05:27:30;4.20;97.70
23715;DHT22;12036;50.858;4.472;2023-12-04T05:29:55;4.30;97.50
23715;DHT22;12036;50.858;4.472;2023-12-04T05:32:21;4.20;97.90
23715;DHT22;12036;50.858;4.472;2023-12-04T05:34:47;4.10;97.80
23715;DHT22;12036;50.858;4.472;2023-12-04T05:37:12;4.20;97.50
23715;DHT22;12036;50.858;4.472;2023-12-04T05:39:38;4.20;97.70
23715;DHT22;12036;50.858;4.472;2023-12-04T05:42:04;4.30;97.10
23715;DHT22;12036;50.858;4.472;2023-12-04T05:44:31;4.40;96.90
23715;DHT22;12036;50.858;4.472;2023-12-04T05:46:57;4.50;96.20
23715;DHT22;12036;50.858;4.472;2023-12-04T05:49:23;4.60;96.60
23715;DHT22;12036;50.858;4.472;2023-12-04T05:51:48;4.60;96.70
23715;DHT22;12036;50.858;4.472;2023-12-04T05:54:14;4.50;96.60
23715;DHT22;12036;50.858;4.472;2023-12-04T05:56:39;4.50;96.50
23715;DHT22;12036;50.858;4.472;2023-12-04T05:59:05;4.50;96.60
23715;DHT22;12036;50.858;4.472;2023-12-04T06:01:31;4.50;96.90
23715;DHT22;12036;50.858;4.472;2023-12-04T06:03:56;4.50;96.60
23715;DHT22;12036;50.858;4.472;2023-12-04T06:06:22;4.50;96.30
23715;DHT22;12036;50.858;4.472;2023-12-04T06:08:47;4.70;96.00
23715;DHT22;12036;50.858;4.472;2023-12-04T06:11:13;4.70;96.20
23715;DHT22;12036;50.858;4.472;2023-12-04T06:13:39;4.60;96.20
23715;DHT22;12036;50.858;4.472;2023-12-04T06:16:05;4.60;96.30
23715;DHT22;12036;50.858;4.472;2023-12-04T06:18:31;4.60;96.50
23715;DHT22;12036;50.858;4.472;2023-12-04T06:20:56;4.70;95.90
23715;DHT22;12036;50.858;4.472;2023-12-04T06:23:23;4.60;96.10
23715;DHT22;12036;50.858;4.472;2023-12-04T06:25:48;4.50;96.60
23715;DHT22;12036;50.858;4.472;2023-12-04T06:28:14;4.40;96.80
23715;DHT22;12036;50.858;4.472;2023-12-04T06:30:40;4.40;97.00
23715;DHT22;12036;50.858;4.472;2023-12-04T06:33:07;4.40;96.90
23715;DHT22;12036;50.858;4.472;2023-12-04T06:35:33;4.40;96.70
23715;DHT22;12036;50.858;4.472;2023-12-04T06:38:05;4.40;96.70
23715;DHT22;12036;50.858;4.472;2023-12-04T06:40:31;4.60;96.50
23715;DHT22;12036;50.858;4.472;2023-12-04T06:42:57;4.70;95.80
23715;DHT22;12036;50.858;4.472;2023-12-04T06:45:23;4.80;95.80
23715;DHT22;12036;50.858;4.472;2023-12-04T06:47:50;4.80;96.00
23715;DHT22;12036;50.858;4.472;2023-12-04T06:50:16;4.80;95.40
23715;DHT22;12036;50.858;4.472;2023-12-04T06:52:42;4.80;95.30
23715;DHT22;12036;50.858;4.472;2023-12-04T06:55:08;4.90;95.70
23715;DHT22;12036;50.858;4.472;2023-12-04T06:57:34;4.80;95.80
23715;DHT22;12036;50.858;4.472;2023-12-04T07:00:00;4.80;96.10
23715;DHT22;12036;50.858;4.472;2023-12-04T07:02:25;4.70;95.90
23715;DHT22;12036;50.858;4.472;2023-12-04T07:04:51;4.70;96.20
23715;DHT22;12036;50.858;4.472;2023-12-04T07:07:17;4.80;96.30
23715;DHT22;12036;50.858;4.472;2023-12-04T07:09:42;4.70;96.70
23715;DHT22;12036;50.858;4.472;2023-12-04T07:12:08;4.60;96.80
23715;DHT22;12036;50.858;4.472;2023-12-04T07:14:34;4.60;97.00
23715;DHT22;12036;50.858;4.472;2023-12-04T07:17:00;4.60;97.10
23715;DHT22;12036;50.858;4.472;2023-12-04T07:19:26;4.60;97.30
23715;DHT22;12036;50.858;4.472;2023-12-04T07:21:52;4.60;97.40
23715;DHT22;12036;50.858;4.472;2023-12-04T07:24:18;4.60;97.50
23715;DHT22;12036;50.858;4.472;2023-12-04T07:26:43;4.60;97.60
23715;DHT22;12036;50.858;4.472;2023-12-04T07:29:09;4.60;97.70
23715;DHT22;12036;50.858;4.472;2023-12-04T07:31:35;4.70;97.70
23715;DHT22;12036;50.858;4.472;2023-12-04T07:34:00;4.80;97.60
23715;DHT22;12036;50.858;4.472;2023-12-04T07:36:27;4.60;98.20
23715;DHT22;12036;50.858;4.472;2023-12-04T07:38:53;4.80;97.80
23715;DHT22;12036;50.858;4.472;2023-12-04T07:41:19;4.80;97.50
23715;DHT22;12036;50.858;4.472;2023-12-04T07:43:45;4.80;97.60
23715;DHT22;12036;50.858;4.472;2023-12-04T07:46:11;4.70;98.10
23715;DHT22;12036;50.858;4.472;2023-12-04T07:48:37;4.70;98.10
23715;DHT22;12036;50.858;4.472;2023-12-04T07:51:03;4.70;97.70
23715;DHT22;12036;50.858;4.472;2023-12-04T07:53:29;4.70;98.20
23715;DHT22;12036;50.858;4.472;2023-12-04T07:55:54;4.80;98.20
23715;DHT22;12036;50.858;4.472;2023-12-04T07:58:20;4.70;98.00
23715;DHT22;12036;50.858;4.472;2023-12-04T08:00:47;4.80;98.00
23715;DHT22;12036;50.858;4.472;2023-12-04T08:03:13;4.70;98.50
23715;DHT22;12036;50.858;4.472;2023-12-04T08:05:38;4.80;98.20
23715;DHT22;12036;50.858;4.472;2023-12-04T08:08:04;4.70;98.60
23715;DHT22;12036;50.858;4.472;2023-12-04T08:10:31;4.80;98.50
23715;DHT22;12036;50.858;4.472;2023-12-04T08:12:57;4.90;98.10
23715;DHT22;12036;50.858;4.472;2023-12-04T08:15:22;5.00;98.10
23715;DHT22;12036;50.858;4.472;2023-12-04T08:17:48;5.00;98.20
23715;DHT22;12036;50.858;4.472;2023-12-04T08:20:13;4.90;98.40
23715;DHT22;12036;50.858;4.472;2023-12-04T08:22:40;4.90;98.50
23715;DHT22;12036;50.858;4.472;2023-12-04T08:25:07;4.90;98.70
23715;DHT22;12036;50.858;4.472;2023-12-04T08:27:33;4.90;98.70
23715;DHT22;12036;50.858;4.472;2023-12-04T08:29:59;5.00;98.20
23715;DHT22;12036;50.858;4.472;2023-12-04T08:32:24;5.00;98.50
23715;DHT22;12036;50.858;4.472;2023-12-04T08:34:52;5.00;98.40
23715;DHT22;12036;50.858;4.472;2023-12-04T08:37:18;5.00;98.70
23715;DHT22;12036;50.858;4.472;2023-12-04T08:39:44;5.00;99.10
23715;DHT22;12036;50.858;4.472;2023-12-04T08:42:11;5.00;99.20
23715;DHT22;12036;50.858;4.472;2023-12-04T08:44:37;4.90;99.70
23715;DHT22;12036;50.858;4.472;2023-12-04T08:47:03;4.80;99.90
23715;DHT22;12036;50.858;4.472;2023-12-04T08:49:28;4.80;99.90
23715;DHT22;12036;50.858;4.472;2023-12-04T08:51:54;4.90;99.90
23715;DHT22;12036;50.858;4.472;2023-12-04T08:54:20;4.90;99.90
23715;DHT22;12036;50.858;4.472;2023-12-04T08:56:45;4.80;99.90
23715;DHT22;12036;50.858;4.472;2023-12-04T08:59:11;4.80;99.90
23715;DHT22;12036;50.858;4.472;2023-12-04T09:01:38;4.80;99.90
23715;DHT22;12036;50.858;4.472;2023-12-04T09:04:04;4.80;99.90
23715;DHT22;12036;50.858;4.472;2023-12-04T09:06:30;4.80;99.90
23715;DHT22;12036;50.858;4.472;2023-12-04T09:08:55;4.70;99.90
23715;DHT22;12036;50.858;4.472;2023-12-04T09:11:21;4.60;99.90
23715;DHT22;12036;50.858;4.472;2023-12-04T09:13:47;4.60;99.90
23715;DHT22;12036;50.858;4.472;2023-12-04T09:16:12;4.60;99.90
23715;DHT22;12036;50.858;4.472;2023-12-04T09:18:39;4.50;99.90
23715;DHT22;12036;50.858;4.472;2023-12-04T09:21:05;4.50;99.90
23715;DHT22;12036;50.858;4.472;2023-12-04T09:23:30;4.40;99.90
23715;DHT22;12036;50.858;4.472;2023-12-04T09:25:56;4.60;99.90
23715;DHT22;12036;50.858;4.472;2023-12-04T09:28:22;4.70;99.90
23715;DHT22;12036;50.858;4.472;2023-12-04T09:30:48;4.70;99.90
23715;DHT22;12036;50.858;4.472;2023-12-04T09:33:13;4.80;99.90
23715;DHT22;12036;50.858;4.472;2023-12-04T09:35:39;4.70;99.90
23715;DHT22;12036;50.858;4.472;2023-12-04T09:38:05;4.80;99.90
23715;DHT22;12036;50.858;4.472;2023-12-04T09:40:30;4.70;99.90
23715;DHT22;12036;50.858;4.472;2023-12-04T09:42:56;4.60;99.90
23715;DHT22;12036;50.858;4.472;2023-12-04T09:45:24;4.70;99.90
23715;DHT22;12036;50.858;4.472;2023-12-04T09:47:50;4.60;99.90
23715;DHT22;12036;50.858;4.472;2023-12-04T09:50:16;4.50;99.90
23715;DHT22;12036;50.858;4.472;2023-12-04T09:52:50;4.40;99.90
23715;DHT22;12036;50.858;4.472;2023-12-04T09:55:16;4.30;99.90
23715;DHT22;12036;50.858;4.472;2023-12-04T09:57:44;4.20;99.90
23715;DHT22;12036;50.858;4.472;2023-12-04T10:00:12;4.20;99.90
23715;DHT22;12036;50.858;4.472;2023-12-04T10:02:39;4.10;99.90
23715;DHT22;12036;50.858;4.472;2023-12-04T10:05:06;4.20;99.90
23715;DHT22;12036;50.858;4.472;2023-12-04T10:07:32;4.20;99.90
23715;DHT22;12036;50.858;4.472;2023-12-04T10:09:57;4.10;99.90
23715;DHT22;12036;50.858;4.472;2023-12-04T10:12:23;4.10;99.90
23715;DHT22;12036;50.858;4.472;2023-12-04T10:15:09;4.20;99.90
23715;DHT22;12036;50.858;4.472;2023-12-04T10:17:40;4.10;99.90
23715;DHT22;12036;50.858;4.472;2023-12-04T10:20:06;4.10;99.90
23715;DHT22;12036;50.858;4.472;2023-12-04T10:22:57;4.10;99.90
23715;DHT22;12036;50.858;4.472;2023-12-04T10:25:24;4.20;99.90
23715;DHT22;12036;50.858;4.472;2023-12-04T10:27:51;4.10;99.90
23715;DHT22;12036;50.858;4.472;2023-12-04T10:30:28;4.10;99.90
23715;DHT22;12036;50.858;4.472;2023-12-04T10:33:04;4.10;99.90
23715;DHT22;12036;50.858;4.472;2023-12-04T10:35:32;4.10;99.90
23715;DHT22;12036;50.858;4.472;2023-12-04T10:37:58;4.20;99.90
23715;DHT22;12036;50.858;4.472;2023-12-04T10:40:29;4.30;99.90
23715;DHT22;12036;50.858;4.472;2023-12-04T10:43:12;4.30;99.90
23715;DHT22;12036;50.858;4.472;2023-12-04T10:45:39;4.20;99.90
23715;DHT22;12036;50.858;4.472;2023-12-04T10:48:05;4.30;99.90
23715;DHT22;12036;50.858;4.472;2023-12-04T10:50:35;4.40;99.90
23715;DHT22;12036;50.858;4.472;2023-12-04T10:53:10;4.40;99.90
23715;DHT22;12036;50.858;4.472;2023-12-04T10:55:36;4.40;99.90
23715;DHT22;12036;50.858;4.472;2023-12-04T10:58:05;4.50;99.90
23715;DHT22;12036;50.858;4.472;2023-12-04T11:00:47;4.50;99.90
23715;DHT22;12036;50.858;4.472;2023-12-04T11:03:21;4.50;99.90
23715;DHT22;12036;50.858;4.472;2023-12-04T11:05:55;4.30;99.90
23715;DHT22;12036;50.858;4.472;2023-12-04T11:08:22;4.40;99.90
23715;DHT22;12036;50.858;4.472;2023-12-04T11:10:56;4.40;99.90
23715;DHT22;12036;50.858;4.472;2023-12-04T11:13:27;4.60;99.90
23715;DHT22;12036;50.858;4.472;2023-12-04T11:16:01;4.70;99.90
23715;DHT22;12036;50.858;4.472;2023-12-04T11:18:31;4.80;99.90
23715;DHT22;12036;50.858;4.472;2023-12-04T11:21:06;4.90;99.90
23715;DHT22;12036;50.858;4.472;2023-12-04T11:23:33;5.00;99.90
23715;DHT22;12036;50.858;4.472;2023-12-04T11:26:00;5.10;99.90
23715;DHT22;12036;50.858;4.472;2023-12-04T11:28:27;5.20;99.90
23715;DHT22;12036;50.858;4.472;2023-12-04T11:30:54;5.10;99.90
23715;DHT22;12036;50.858;4.472;2023-12-04T11:33:20;5.10;99.90
23715;DHT22;12036;50.858;4.472;2023-12-04T11:35:46;5.10;99.90
23715;DHT22;12036;50.858;4.472;2023-12-04T11:38:15;5.00;99.90
23715;DHT22;12036;50.858;4.472;2023-12-04T11:40:42;4.90;99.90
23715;DHT22;12036;50.858;4.472;2023-12-04T11:43:27;4.90;99.90
23715;DHT22;12036;50.858;4.472;2023-12-04T11:45:53;4.80;99.90
23715;DHT22;12036;50.858;4.472;2023-12-04T11:48:23;4.80;99.90
23715;DHT22;12036;50.858;4.472;2023-12-04T11:50:51;4.80;99.90
23715;DHT22;12036;50.858;4.472;2023-12-04T11:53:17;4.90;99.90
23715;DHT22;12036;50.858;4.472;2023-12-04T11:55:43;5.00;99.90
23715;DHT22;12036;50.858;4.472;2023-12-04T11:58:09;5.00;99.90
23715;DHT22;12036;50.858;4.472;2023-12-04T12:00:36;5.10;99.90
23715;DHT22;12036;50.858;4.472;2023-12-04T12:03:05;5.10;99.90
23715;DHT22;12036;50.858;4.472;2023-12-04T12:05:33;5.10;99.90
23715;DHT22;12036;50.858;4.472;2023-12-04T12:08:06;5.10;99.90
23715;DHT22;12036;50.858;4.472;2023-12-04T12:10:33;5.00;99.90
23715;DHT22;12036;50.858;4.472;2023-12-04T12:12:59;5.00;99.90
23715;DHT22;12036;50.858;4.472;2023-12-04T12:15:25;5.10;99.90
23715;DHT22;12036;50.858;4.472;2023-12-04T12:17:51;5.00;99.90
23715;DHT22;12036;50.858;4.472;2023-12-04T12:20:19;5.00;99.90
23715;DHT22;12036;50.858;4.472;2023-12-04T12:22:48;5.10;99.90
23715;DHT22;12036;50.858;4.472;2023-12-04T12:25:15;5.20;99.90
23715;DHT22;12036;50.858;4.472;2023-12-04T12:27:41;5.20;99.90
23715;DHT22;12036;50.858;4.472;2023-12-04T12:30:07;5.20;99.90
23715;DHT22;12036;50.858;4.472;2023-12-04T12:32:34;5.20;99.90
23715;DHT22;12036;50.858;4.472;2023-12-04T12:34:59;5.30;99.90
23715;DHT22;12036;50.858;4.472;2023-12-04T12:37:25;5.30;99.90
23715;DHT22;12036;50.858;4.472;2023-12-04T12:39:51;5.40;99.90
23715;DHT22;12036;50.858;4.472;2023-12-04T12:42:29;5.40;99.90
23715;DHT22;12036;50.858;4.472;2023-12-04T12:44:55;5.30;99.90
23715;DHT22;12036;50.858;4.472;2023-12-04T12:47:25;5.30;99.90
23715;DHT22;12036;50.858;4.472;2023-12-04T12:49:52;5.30;99.90
23715;DHT22;12036;50.858;4.472;2023-12-04T12:52:18;5.20;99.90
23715;DHT22;12036;50.858;4.472;2023-12-04T12:54:45;5.20;99.90
23715;DHT22;12036;50.858;4.472;2023-12-04T12:57:11;5.20;99.90
23715;DHT22;12036;50.858;4.472;2023-12-04T12:59:40;5.20;99.90
23715;DHT22;12036;50.858;4.472;2023-12-04T13:02:07;5.30;99.90
23715;DHT22;12036;50.858;4.472;2023-12-04T13:04:43;5.30;99.90
23715;DHT22;12036;50.858;4.472;2023-12-04T13:07:09;5.30;99.90
23715;DHT22;12036;50.858;4.472;2023-12-04T13:09:35;5.30;99.90
23715;DHT22;12036;50.858;4.472;2023-12-04T13:12:04;5.30;99.90
23715;DHT22;12036;50.858;4.472;2023-12-04T13:14:31;5.20;99.90
23715;DHT22;12036;50.858;4.472;2023-12-04T13:16:56;5.20;99.90
23715;DHT22;12036;50.858;4.472;2023-12-04T13:19:25;5.10;99.90
23715;DHT22;12036;50.858;4.472;2023-12-04T13:21:51;5.10;99.90
23715;DHT22;12036;50.858;4.472;2023-12-04T13:24:17;5.10;99.90
23715;DHT22;12036;50.858;4.472;2023-12-04T13:26:43;5.10;99.90
23715;DHT22;12036;50.858;4.472;2023-12-04T13:29:10;5.10;99.90
23715;DHT22;12036;50.858;4.472;2023-12-04T13:31:35;5.20;99.90
23715;DHT22;12036;50.858;4.472;2023-12-04T13:34:01;5.30;99.90
23715;DHT22;12036;50.858;4.472;2023-12-04T13:36:28;5.40;99.90
23715;DHT22;12036;50.858;4.472;2023-12-04T13:38:54;5.30;99.90
23715;DHT22;12036;50.858;4.472;2023-12-04T13:41:20;5.20;99.90
23715;DHT22;12036;50.858;4.472;2023-12-04T13:44:04;5.20;99.90
23715;DHT22;12036;50.858;4.472;2023-12-04T13:46:30;5.10;99.90
23715;DHT22;12036;50.858;4.472;2023-12-04T13:48:56;5.10;99.90
23715;DHT22;12036;50.858;4.472;2023-12-04T13:51:22;5.20;99.90
23715;DHT22;12036;50.858;4.472;2023-12-04T13:53:48;5.10;99.90
23715;DHT22;12036;50.858;4.472;2023-12-04T13:56:16;5.10;99.90
23715;DHT22;12036;50.858;4.472;2023-12-04T13:59:21;5.30;99.90
23715;DHT22;12036;50.858;4.472;2023-12-04T14:01:47;5.20;99.90
23715;DHT22;12036;50.858;4.472;2023-12-04T14:04:15;5.20;99.90
23715;DHT22;12036;50.858;4.472;2023-12-04T14:06:41;5.10;99.90
23715;DHT22;12036;50.858;4.472;2023-12-04T14:09:07;5.00;99.90
23715;DHT22;12036;50.858;4.472;2023-12-04T14:11:37;5.00;99.90
23715;DHT22;12036;50.858;4.472;2023-12-04T14:14:02;4.90;99.90
23715;DHT22;12036;50.858;4.472;2023-12-04T14:16:30;4.90;99.90
23715;DHT22;12036;50.858;4.472;2023-12-04T14:18:55;4.90;99.90
23715;DHT22;12036;50.858;4.472;2023-12-04T14:21:21;4.90;99.90
23715;DHT22;12036;50.858;4.472;2023-12-04T14:23:46;4.90;99.90
23715;DHT22;12036;50.858;4.472;2023-12-04T14:26:12;5.10;99.90
23715;DHT22;12036;50.858;4.472;2023-12-04T14:28:38;5.00;99.90
23715;DHT22;12036;50.858;4.472;2023-12-04T14:31:05;5.00;99.90
23715;DHT22;12036;50.858;4.472;2023-12-04T14:33:32;5.00;99.90
23715;DHT22;12036;50.858;4.472;2023-12-04T14:35:58;5.00;99.90
23715;DHT22;12036;50.858;4.472;2023-12-04T14:38:23;4.90;99.90
23715;DHT22;12036;50.858;4.472;2023-12-04T14:40:49;5.00;99.90
23715;DHT22;12036;50.858;4.472;2023-12-04T14:43:15;4.90;99.90
23715;DHT22;12036;50.858;4.472;2023-12-04T14:45:41;5.00;99.90
23715;DHT22;12036;50.858;4.472;2023-12-04T14:48:06;5.00;99.90
23715;DHT22;12036;50.858;4.472;2023-12-04T14:50:35;4.90;99.90
23715;DHT22;12036;50.858;4.472;2023-12-04T14:53:03;4.90;99.90
23715;DHT22;12036;50.858;4.472;2023-12-04T14:55:42;5.00;99.90
23715;DHT22;12036;50.858;4.472;2023-12-04T14:58:28;5.10;99.90
23715;DHT22;12036;50.858;4.472;2023-12-04T15:01:20;5.20;99.90
23715;DHT22;12036;50.858;4.472;2023-12-04T15:04:04;5.10;99.90
23715;DHT22;12036;50.858;4.472;2023-12-04T15:06:35;5.10;99.90
23715;DHT22;12036;50.858;4.472;2023-12-04T15:09:18;5.20;99.90
23715;DHT22;12036;50.858;4.472;2023-12-04T15:12:03;5.20;99.90
23715;DHT22;12036;50.858;4.472;2023-12-04T15:14:54;5.10;99.90
23715;DHT22;12036;50.858;4.472;2023-12-04T15:17:39;5.10;99.90
23715;DHT22;12036;50.858;4.472;2023-12-04T15:20:17;5.10;99.90
23715;DHT22;12036;50.858;4.472;2023-12-04T15:22:58;5.00;99.90
23715;DHT22;12036;50.858;4.472;2023-12-04T15:25:24;5.10;99.90
23715;DHT22;12036;50.858;4.472;2023-12-04T15:27:49;5.10;99.90
23715;DHT22;12036;50.858;4.472;2023-12-04T15:30:16;5.10;99.90
23715;DHT22;12036;50.858;4.472;2023-12-04T15:32:42;5.20;99.90
23715;DHT22;12036;50.858;4.472;2023-12-04T15:35:07;5.20;99.90
23715;DHT22;12036;50.858;4.472;2023-12-04T15:37:35;5.20;99.90
23715;DHT22;12036;50.858;4.472;2023-12-04T15:40:01;5.20;99.90
23715;DHT22;12036;50.858;4.472;2023-12-04T15:42:26;5.30;99.90
23715;DHT22;12036;50.858;4.472;2023-12-04T15:44:54;5.20;99.90